sensor_id;sensor_type;location;lat;lon;timestamp;P1;durP1;ratioP1;P2;durP2;ratioP2
16660;SDS011;8444;52.012;5.048;2022-09-23T00:02:15;11.27;;;8.83;;
16660;SDS011;8444;52.012;5.048;2022-09-23T00:04:40;12.07;;;10.07;;
16660;SDS011;8444;52.012;5.048;2022-09-23T00:07:06;12.07;;;9.73;;
16660;SDS011;8444;52.012;5.048;2022-09-23T00:09:32;11.73;;;8.90;;
16660;SDS011;8444;52.012;5.048;2022-09-23T00:11:58;9.53;;;8.40;;
16660;SDS011;8444;52.012;5.048;2022-09-23T00:14:24;12.80;;;9.27;;
16660;SDS011;8444;52.012;5.048;2022-09-23T00:16:49;14.83;;;10.57;;
16660;SDS011;8444;52.012;5.048;2022-09-23T00:19:14;10.90;;;9.70;;
16660;SDS011;8444;52.012;5.048;2022-09-23T00:21:39;12.53;;;9.53;;
16660;SDS011;8444;52.012;5.048;2022-09-23T00:24:04;9.93;;;8.50;;
16660;SDS011;8444;52.012;5.048;2022-09-23T00:26:32;9.73;;;8.53;;
16660;SDS011;8444;52.012;5.048;2022-09-23T00:28:57;10.30;;;8.90;;
16660;SDS011;8444;52.012;5.048;2022-09-23T00:31:23;11.83;;;9.80;;
16660;SDS011;8444;52.012;5.048;2022-09-23T00:33:55;9.50;;;8.47;;
16660;SDS011;8444;52.012;5.048;2022-09-23T00:36:21;9.07;;;7.90;;
16660;SDS011;8444;52.012;5.048;2022-09-23T00:38:46;9.03;;;7.80;;
16660;SDS011;8444;52.012;5.048;2022-09-23T00:41:12;11.67;;;9.47;;
16660;SDS011;8444;52.012;5.048;2022-09-23T00:46:05;11.23;;;8.67;;
16660;SDS011;8444;52.012;5.048;2022-09-23T00:48:32;10.23;;;9.13;;
16660;SDS011;8444;52.012;5.048;2022-09-23T00:50:58;13.37;;;9.20;;
16660;SDS011;8444;52.012;5.048;2022-09-23T00:53:23;10.30;;;8.97;;
16660;SDS011;8444;52.012;5.048;2022-09-23T00:55:54;10.90;;;8.43;;
16660;SDS011;8444;52.012;5.048;2022-09-23T00:58:22;14.33;;;9.47;;
16660;SDS011;8444;52.012;5.048;2022-09-23T01:00:49;10.77;;;9.13;;
16660;SDS011;8444;52.012;5.048;2022-09-23T01:03:14;12.07;;;9.47;;
16660;SDS011;8444;52.012;5.048;2022-09-23T01:05:40;11.27;;;8.70;;
16660;SDS011;8444;52.012;5.048;2022-09-23T01:08:06;13.07;;;9.67;;
16660;SDS011;8444;52.012;5.048;2022-09-23T01:10:35;12.10;;;9.73;;
16660;SDS011;8444;52.012;5.048;2022-09-23T01:13:11;11.57;;;9.83;;
16660;SDS011;8444;52.012;5.048;2022-09-23T01:15:50;11.37;;;9.87;;
16660;SDS011;8444;52.012;5.048;2022-09-23T01:18:30;12.07;;;9.63;;
16660;SDS011;8444;52.012;5.048;2022-09-23T01:21:11;13.07;;;9.23;;
16660;SDS011;8444;52.012;5.048;2022-09-23T01:31:39;14.30;;;10.87;;
16660;SDS011;8444;52.012;5.048;2022-09-23T01:36:39;12.77;;;10.30;;
16660;SDS011;8444;52.012;5.048;2022-09-23T01:39:15;11.70;;;10.27;;
16660;SDS011;8444;52.012;5.048;2022-09-23T01:41:47;11.40;;;10.10;;
16660;SDS011;8444;52.012;5.048;2022-09-23T01:44:20;13.47;;;11.50;;
16660;SDS011;8444;52.012;5.048;2022-09-23T01:46:47;13.30;;;10.80;;
16660;SDS011;8444;52.012;5.048;2022-09-23T01:49:19;15.73;;;11.37;;
16660;SDS011;8444;52.012;5.048;2022-09-23T01:51:51;13.33;;;10.70;;
16660;SDS011;8444;52.012;5.048;2022-09-23T01:56:47;15.50;;;11.70;;
16660;SDS011;8444;52.012;5.048;2022-09-23T02:02:05;15.73;;;12.43;;
16660;SDS011;8444;52.012;5.048;2022-09-23T02:04:43;14.97;;;10.97;;
16660;SDS011;8444;52.012;5.048;2022-09-23T02:07:15;16.57;;;12.90;;
16660;SDS011;8444;52.012;5.048;2022-09-23T02:09:42;14.20;;;11.90;;
16660;SDS011;8444;52.012;5.048;2022-09-23T02:12:10;17.40;;;14.00;;
16660;SDS011;8444;52.012;5.048;2022-09-23T02:14:40;17.73;;;13.97;;
16660;SDS011;8444;52.012;5.048;2022-09-23T02:17:10;14.83;;;13.23;;
16660;SDS011;8444;52.012;5.048;2022-09-23T02:19:41;17.07;;;12.87;;
16660;SDS011;8444;52.012;5.048;2022-09-23T02:24:53;16.80;;;13.40;;
16660;SDS011;8444;52.012;5.048;2022-09-23T02:29:53;12.27;;;10.90;;
16660;SDS011;8444;52.012;5.048;2022-09-23T02:40:10;17.33;;;13.10;;
16660;SDS011;8444;52.012;5.048;2022-09-23T02:45:10;18.40;;;12.03;;
16660;SDS011;8444;52.012;5.048;2022-09-23T02:47:36;16.60;;;13.03;;
16660;SDS011;8444;52.012;5.048;2022-09-23T02:50:03;14.93;;;11.10;;
16660;SDS011;8444;52.012;5.048;2022-09-23T02:52:29;14.77;;;12.37;;
16660;SDS011;8444;52.012;5.048;2022-09-23T02:54:54;15.73;;;11.73;;
16660;SDS011;8444;52.012;5.048;2022-09-23T02:57:20;15.40;;;12.03;;
16660;SDS011;8444;52.012;5.048;2022-09-23T02:59:45;15.80;;;12.40;;
16660;SDS011;8444;52.012;5.048;2022-09-23T03:12:48;13.87;;;11.83;;
16660;SDS011;8444;52.012;5.048;2022-09-23T03:20:45;18.30;;;13.13;;
16660;SDS011;8444;52.012;5.048;2022-09-23T03:23:14;15.37;;;12.10;;
16660;SDS011;8444;52.012;5.048;2022-09-23T03:25:43;16.93;;;12.73;;
16660;SDS011;8444;52.012;5.048;2022-09-23T03:28:10;16.60;;;13.80;;
16660;SDS011;8444;52.012;5.048;2022-09-23T03:30:35;15.10;;;11.27;;
16660;SDS011;8444;52.012;5.048;2022-09-23T03:33:02;15.67;;;12.53;;
16660;SDS011;8444;52.012;5.048;2022-09-23T03:35:29;17.90;;;12.37;;
16660;SDS011;8444;52.012;5.048;2022-09-23T03:38:04;16.43;;;12.63;;
16660;SDS011;8444;52.012;5.048;2022-09-23T03:40:33;16.43;;;12.80;;
16660;SDS011;8444;52.012;5.048;2022-09-23T03:43:07;16.83;;;13.10;;
16660;SDS011;8444;52.012;5.048;2022-09-23T03:45:33;18.70;;;14.77;;
16660;SDS011;8444;52.012;5.048;2022-09-23T03:47:59;14.07;;;11.67;;
16660;SDS011;8444;52.012;5.048;2022-09-23T03:50:24;16.27;;;11.00;;
16660;SDS011;8444;52.012;5.048;2022-09-23T03:52:50;14.93;;;11.37;;
16660;SDS011;8444;52.012;5.048;2022-09-23T03:55:15;16.83;;;13.00;;
16660;SDS011;8444;52.012;5.048;2022-09-23T03:57:41;17.63;;;13.57;;
16660;SDS011;8444;52.012;5.048;2022-09-23T04:00:07;17.53;;;13.17;;
16660;SDS011;8444;52.012;5.048;2022-09-23T04:02:33;12.77;;;10.93;;
16660;SDS011;8444;52.012;5.048;2022-09-23T04:04:58;14.23;;;11.33;;
16660;SDS011;8444;52.012;5.048;2022-09-23T04:07:23;13.30;;;11.87;;
16660;SDS011;8444;52.012;5.048;2022-09-23T04:09:49;11.67;;;10.47;;
16660;SDS011;8444;52.012;5.048;2022-09-23T04:12:15;15.37;;;11.80;;
16660;SDS011;8444;52.012;5.048;2022-09-23T04:14:40;16.73;;;11.00;;
16660;SDS011;8444;52.012;5.048;2022-09-23T04:17:05;11.27;;;9.03;;
16660;SDS011;8444;52.012;5.048;2022-09-23T04:19:31;13.97;;;11.20;;
16660;SDS011;8444;52.012;5.048;2022-09-23T04:21:56;13.10;;;10.90;;
16660;SDS011;8444;52.012;5.048;2022-09-23T04:24:21;17.83;;;11.20;;
16660;SDS011;8444;52.012;5.048;2022-09-23T04:26:49;13.70;;;11.10;;
16660;SDS011;8444;52.012;5.048;2022-09-23T04:29:15;13.27;;;10.77;;
16660;SDS011;8444;52.012;5.048;2022-09-23T04:31:40;13.90;;;10.47;;
16660;SDS011;8444;52.012;5.048;2022-09-23T04:34:05;12.00;;;10.70;;
16660;SDS011;8444;52.012;5.048;2022-09-23T04:36:31;13.90;;;11.73;;
16660;SDS011;8444;52.012;5.048;2022-09-23T04:38:56;11.57;;;9.93;;
16660;SDS011;8444;52.012;5.048;2022-09-23T04:41:22;12.80;;;10.70;;
16660;SDS011;8444;52.012;5.048;2022-09-23T04:43:47;12.40;;;10.67;;
16660;SDS011;8444;52.012;5.048;2022-09-23T04:46:13;13.90;;;10.23;;
16660;SDS011;8444;52.012;5.048;2022-09-23T04:48:38;15.30;;;11.13;;
16660;SDS011;8444;52.012;5.048;2022-09-23T04:53:36;11.33;;;10.13;;
16660;SDS011;8444;52.012;5.048;2022-09-23T04:56:08;13.90;;;10.43;;
16660;SDS011;8444;52.012;5.048;2022-09-23T04:58:35;16.07;;;10.90;;
16660;SDS011;8444;52.012;5.048;2022-09-23T05:01:10;12.00;;;9.90;;
16660;SDS011;8444;52.012;5.048;2022-09-23T05:03:36;14.27;;;10.23;;
16660;SDS011;8444;52.012;5.048;2022-09-23T05:06:01;12.87;;;10.67;;
16660;SDS011;8444;52.012;5.048;2022-09-23T05:08:26;13.53;;;10.40;;
16660;SDS011;8444;52.012;5.048;2022-09-23T05:10:55;13.37;;;10.10;;
16660;SDS011;8444;52.012;5.048;2022-09-23T05:13:20;15.87;;;10.37;;
16660;SDS011;8444;52.012;5.048;2022-09-23T05:15:45;12.93;;;10.93;;
16660;SDS011;8444;52.012;5.048;2022-09-23T05:18:11;12.20;;;9.93;;
16660;SDS011;8444;52.012;5.048;2022-09-23T05:20:36;14.10;;;10.60;;
16660;SDS011;8444;52.012;5.048;2022-09-23T05:23:01;11.70;;;9.67;;
16660;SDS011;8444;52.012;5.048;2022-09-23T05:25:26;11.93;;;9.83;;
16660;SDS011;8444;52.012;5.048;2022-09-23T05:27:51;11.90;;;9.73;;
16660;SDS011;8444;52.012;5.048;2022-09-23T05:30:16;10.43;;;9.33;;
16660;SDS011;8444;52.012;5.048;2022-09-23T05:32:42;11.97;;;9.47;;
16660;SDS011;8444;52.012;5.048;2022-09-23T05:35:07;11.40;;;10.20;;
16660;SDS011;8444;52.012;5.048;2022-09-23T05:37:32;12.63;;;9.53;;
16660;SDS011;8444;52.012;5.048;2022-09-23T05:39:57;10.87;;;9.17;;
16660;SDS011;8444;52.012;5.048;2022-09-23T05:42:23;13.93;;;9.50;;
16660;SDS011;8444;52.012;5.048;2022-09-23T05:44:48;13.17;;;10.27;;
16660;SDS011;8444;52.012;5.048;2022-09-23T05:47:13;12.07;;;9.80;;
16660;SDS011;8444;52.012;5.048;2022-09-23T05:49:38;10.73;;;9.13;;
16660;SDS011;8444;52.012;5.048;2022-09-23T05:52:03;11.73;;;8.97;;
16660;SDS011;8444;52.012;5.048;2022-09-23T05:54:29;10.40;;;8.63;;
16660;SDS011;8444;52.012;5.048;2022-09-23T05:56:54;10.57;;;9.20;;
16660;SDS011;8444;52.012;5.048;2022-09-23T05:59:19;10.83;;;8.97;;
16660;SDS011;8444;52.012;5.048;2022-09-23T06:01:44;11.13;;;8.60;;
16660;SDS011;8444;52.012;5.048;2022-09-23T06:04:10;10.37;;;9.07;;
16660;SDS011;8444;52.012;5.048;2022-09-23T06:06:37;12.97;;;9.27;;
16660;SDS011;8444;52.012;5.048;2022-09-23T06:09:03;11.90;;;9.90;;
16660;SDS011;8444;52.012;5.048;2022-09-23T06:11:29;12.90;;;9.00;;
16660;SDS011;8444;52.012;5.048;2022-09-23T06:13:54;11.40;;;9.67;;
16660;SDS011;8444;52.012;5.048;2022-09-23T06:16:20;11.00;;;8.97;;
16660;SDS011;8444;52.012;5.048;2022-09-23T06:18:45;11.93;;;9.30;;
16660;SDS011;8444;52.012;5.048;2022-09-23T06:21:11;13.30;;;9.10;;
16660;SDS011;8444;52.012;5.048;2022-09-23T06:23:37;12.60;;;9.33;;
16660;SDS011;8444;52.012;5.048;2022-09-23T06:26:03;11.00;;;9.00;;
16660;SDS011;8444;52.012;5.048;2022-09-23T06:28:33;9.67;;;8.67;;
16660;SDS011;8444;52.012;5.048;2022-09-23T06:30:58;9.77;;;8.33;;
16660;SDS011;8444;52.012;5.048;2022-09-23T06:33:24;12.77;;;9.70;;
16660;SDS011;8444;52.012;5.048;2022-09-23T06:35:53;12.07;;;9.43;;
16660;SDS011;8444;52.012;5.048;2022-09-23T06:38:19;13.67;;;9.23;;
16660;SDS011;8444;52.012;5.048;2022-09-23T06:40:44;12.90;;;8.88;;
16660;SDS011;8444;52.012;5.048;2022-09-23T06:43:13;11.25;;;9.05;;
16660;SDS011;8444;52.012;5.048;2022-09-23T06:45:38;10.73;;;8.70;;
16660;SDS011;8444;52.012;5.048;2022-09-23T06:48:03;9.73;;;7.85;;
16660;SDS011;8444;52.012;5.048;2022-09-23T06:50:32;9.43;;;7.85;;
16660;SDS011;8444;52.012;5.048;2022-09-23T06:52:57;9.95;;;7.95;;
16660;SDS011;8444;52.012;5.048;2022-09-23T06:55:23;10.95;;;7.72;;
16660;SDS011;8444;52.012;5.048;2022-09-23T06:57:49;10.40;;;8.25;;
16660;SDS011;8444;52.012;5.048;2022-09-23T07:00:14;11.50;;;8.35;;
16660;SDS011;8444;52.012;5.048;2022-09-23T07:02:40;12.23;;;7.90;;
16660;SDS011;8444;52.012;5.048;2022-09-23T07:05:06;11.95;;;8.95;;
16660;SDS011;8444;52.012;5.048;2022-09-23T07:07:31;8.77;;;7.45;;
16660;SDS011;8444;52.012;5.048;2022-09-23T07:09:56;8.75;;;7.32;;
16660;SDS011;8444;52.012;5.048;2022-09-23T07:12:22;8.93;;;7.85;;
16660;SDS011;8444;52.012;5.048;2022-09-23T07:14:47;8.00;;;7.20;;
16660;SDS011;8444;52.012;5.048;2022-09-23T07:17:12;9.13;;;8.02;;
16660;SDS011;8444;52.012;5.048;2022-09-23T07:19:37;8.65;;;7.03;;
16660;SDS011;8444;52.012;5.048;2022-09-23T07:22:03;8.05;;;7.10;;
16660;SDS011;8444;52.012;5.048;2022-09-23T07:24:29;9.38;;;7.40;;
16660;SDS011;8444;52.012;5.048;2022-09-23T07:26:54;8.50;;;7.50;;
16660;SDS011;8444;52.012;5.048;2022-09-23T07:29:19;8.00;;;7.20;;
16660;SDS011;8444;52.012;5.048;2022-09-23T07:31:44;8.35;;;7.47;;
16660;SDS011;8444;52.012;5.048;2022-09-23T07:34:10;10.45;;;7.97;;
16660;SDS011;8444;52.012;5.048;2022-09-23T07:36:35;9.77;;;6.97;;
16660;SDS011;8444;52.012;5.048;2022-09-23T07:39:04;8.68;;;7.75;;
16660;SDS011;8444;52.012;5.048;2022-09-23T07:41:30;8.57;;;7.28;;
16660;SDS011;8444;52.012;5.048;2022-09-23T07:43:56;10.90;;;7.57;;
16660;SDS011;8444;52.012;5.048;2022-09-23T07:46:23;7.07;;;6.20;;
16660;SDS011;8444;52.012;5.048;2022-09-23T07:48:48;7.18;;;6.05;;
16660;SDS011;8444;52.012;5.048;2022-09-23T07:51:21;11.13;;;6.68;;
16660;SDS011;8444;52.012;5.048;2022-09-23T07:53:47;7.90;;;6.28;;
16660;SDS011;8444;52.012;5.048;2022-09-23T07:56:13;7.97;;;6.88;;
16660;SDS011;8444;52.012;5.048;2022-09-23T07:58:38;10.15;;;6.65;;
16660;SDS011;8444;52.012;5.048;2022-09-23T08:01:04;9.30;;;6.88;;
16660;SDS011;8444;52.012;5.048;2022-09-23T08:03:30;8.23;;;6.57;;
16660;SDS011;8444;52.012;5.048;2022-09-23T08:06:01;6.15;;;5.30;;
16660;SDS011;8444;52.012;5.048;2022-09-23T08:08:27;8.38;;;5.95;;
16660;SDS011;8444;52.012;5.048;2022-09-23T08:10:58;8.32;;;6.07;;
16660;SDS011;8444;52.012;5.048;2022-09-23T08:13:24;6.95;;;5.90;;
16660;SDS011;8444;52.012;5.048;2022-09-23T08:15:49;8.75;;;6.82;;
16660;SDS011;8444;52.012;5.048;2022-09-23T08:18:14;10.10;;;6.57;;
16660;SDS011;8444;52.012;5.048;2022-09-23T08:20:39;8.20;;;5.90;;
16660;SDS011;8444;52.012;5.048;2022-09-23T08:23:11;6.40;;;5.75;;
16660;SDS011;8444;52.012;5.048;2022-09-23T08:25:38;6.53;;;5.80;;
16660;SDS011;8444;52.012;5.048;2022-09-23T08:28:04;7.43;;;6.03;;
16660;SDS011;8444;52.012;5.048;2022-09-23T08:30:29;7.40;;;5.93;;
16660;SDS011;8444;52.012;5.048;2022-09-23T08:32:54;7.72;;;5.68;;
16660;SDS011;8444;52.012;5.048;2022-09-23T08:35:20;7.07;;;6.28;;
16660;SDS011;8444;52.012;5.048;2022-09-23T08:37:45;7.53;;;6.22;;
16660;SDS011;8444;52.012;5.048;2022-09-23T08:40:10;7.40;;;6.70;;
16660;SDS011;8444;52.012;5.048;2022-09-23T08:42:35;7.13;;;6.35;;
16660;SDS011;8444;52.012;5.048;2022-09-23T08:45:02;9.73;;;6.80;;
16660;SDS011;8444;52.012;5.048;2022-09-23T08:47:31;7.82;;;6.30;;
16660;SDS011;8444;52.012;5.048;2022-09-23T08:50:02;6.65;;;5.97;;
16660;SDS011;8444;52.012;5.048;2022-09-23T08:52:34;9.57;;;6.13;;
16660;SDS011;8444;52.012;5.048;2022-09-23T08:55:03;7.95;;;5.63;;
16660;SDS011;8444;52.012;5.048;2022-09-23T09:00:04;10.75;;;6.18;;
16660;SDS011;8444;52.012;5.048;2022-09-23T09:02:30;8.82;;;6.97;;
16660;SDS011;8444;52.012;5.048;2022-09-23T09:04:58;7.22;;;5.82;;
16660;SDS011;8444;52.012;5.048;2022-09-23T09:07:27;5.97;;;5.05;;
16660;SDS011;8444;52.012;5.048;2022-09-23T09:15:11;10.15;;;5.70;;
16660;SDS011;8444;52.012;5.048;2022-09-23T09:17:45;8.02;;;5.70;;
16660;SDS011;8444;52.012;5.048;2022-09-23T09:27:49;10.35;;;7.03;;
16660;SDS011;8444;52.012;5.048;2022-09-23T09:30:15;9.15;;;6.00;;
16660;SDS011;8444;52.012;5.048;2022-09-23T09:32:42;10.85;;;6.95;;
16660;SDS011;8444;52.012;5.048;2022-09-23T09:38:00;10.15;;;6.95;;
16660;SDS011;8444;52.012;5.048;2022-09-23T09:40:26;8.38;;;6.03;;
16660;SDS011;8444;52.012;5.048;2022-09-23T09:42:51;7.00;;;5.38;;
16660;SDS011;8444;52.012;5.048;2022-09-23T09:50:12;7.18;;;5.07;;
16660;SDS011;8444;52.012;5.048;2022-09-23T09:52:43;11.07;;;5.90;;
16660;SDS011;8444;52.012;5.048;2022-09-23T09:57:37;8.13;;;5.45;;
16660;SDS011;8444;52.012;5.048;2022-09-23T10:05:25;7.57;;;5.43;;
16660;SDS011;8444;52.012;5.048;2022-09-23T10:07:51;6.72;;;5.50;;
16660;SDS011;8444;52.012;5.048;2022-09-23T10:10:18;5.85;;;5.05;;
16660;SDS011;8444;52.012;5.048;2022-09-23T10:12:48;15.55;;;6.45;;
16660;SDS011;8444;52.012;5.048;2022-09-23T10:15:32;10.43;;;5.93;;
16660;SDS011;8444;52.012;5.048;2022-09-23T10:18:08;8.60;;;5.47;;
16660;SDS011;8444;52.012;5.048;2022-09-23T10:20:43;6.25;;;5.10;;
16660;SDS011;8444;52.012;5.048;2022-09-23T10:23:11;8.40;;;5.80;;
16660;SDS011;8444;52.012;5.048;2022-09-23T10:25:40;9.35;;;5.47;;
16660;SDS011;8444;52.012;5.048;2022-09-23T10:31:02;7.82;;;5.60;;
16660;SDS011;8444;52.012;5.048;2022-09-23T10:33:28;8.25;;;5.50;;
16660;SDS011;8444;52.012;5.048;2022-09-23T10:35:55;9.35;;;6.53;;
16660;SDS011;8444;52.012;5.048;2022-09-23T10:38:21;6.60;;;5.63;;
16660;SDS011;8444;52.012;5.048;2022-09-23T10:40:46;6.03;;;4.90;;
16660;SDS011;8444;52.012;5.048;2022-09-23T10:43:46;7.18;;;5.15;;
16660;SDS011;8444;52.012;5.048;2022-09-23T10:47:01;6.72;;;4.95;;
16660;SDS011;8444;52.012;5.048;2022-09-23T10:54:22;7.07;;;4.47;;
16660;SDS011;8444;52.012;5.048;2022-09-23T11:02:33;5.83;;;4.97;;
16660;SDS011;8444;52.012;5.048;2022-09-23T11:05:18;10.45;;;5.15;;
16660;SDS011;8444;52.012;5.048;2022-09-23T11:10:22;5.83;;;5.03;;
16660;SDS011;8444;52.012;5.048;2022-09-23T11:13:11;8.10;;;4.53;;
16660;SDS011;8444;52.012;5.048;2022-09-23T11:15:47;4.65;;;4.22;;
16660;SDS011;8444;52.012;5.048;2022-09-23T11:23:38;8.05;;;4.15;;
16660;SDS011;8444;52.012;5.048;2022-09-23T11:31:19;5.88;;;4.10;;
16660;SDS011;8444;52.012;5.048;2022-09-23T11:38:43;5.53;;;3.63;;
16660;SDS011;8444;52.012;5.048;2022-09-23T11:41:29;4.90;;;3.35;;
16660;SDS011;8444;52.012;5.048;2022-09-23T11:43:57;5.82;;;3.72;;
16660;SDS011;8444;52.012;5.048;2022-09-23T11:49:11;3.70;;;3.33;;
16660;SDS011;8444;52.012;5.048;2022-09-23T11:51:42;4.95;;;3.63;;
16660;SDS011;8444;52.012;5.048;2022-09-23T11:54:12;4.70;;;3.65;;
16660;SDS011;8444;52.012;5.048;2022-09-23T11:56:44;4.93;;;3.63;;
16660;SDS011;8444;52.012;5.048;2022-09-23T12:01:55;5.93;;;4.10;;
16660;SDS011;8444;52.012;5.048;2022-09-23T12:04:35;6.45;;;4.00;;
16660;SDS011;8444;52.012;5.048;2022-09-23T12:09:39;7.40;;;4.80;;
16660;SDS011;8444;52.012;5.048;2022-09-23T12:12:18;5.35;;;4.85;;
16660;SDS011;8444;52.012;5.048;2022-09-23T12:15:07;5.82;;;5.22;;
16660;SDS011;8444;52.012;5.048;2022-09-23T12:17:43;7.75;;;4.88;;
16660;SDS011;8444;52.012;5.048;2022-09-23T12:22:53;5.57;;;4.63;;
16660;SDS011;8444;52.012;5.048;2022-09-23T12:28:10;8.38;;;5.35;;
16660;SDS011;8444;52.012;5.048;2022-09-23T12:30:36;7.80;;;5.07;;
16660;SDS011;8444;52.012;5.048;2022-09-23T12:35:46;7.57;;;5.45;;
16660;SDS011;8444;52.012;5.048;2022-09-23T12:38:22;7.55;;;5.55;;
16660;SDS011;8444;52.012;5.048;2022-09-23T12:40:49;5.22;;;4.72;;
16660;SDS011;8444;52.012;5.048;2022-09-23T12:43:19;7.13;;;5.20;;
16660;SDS011;8444;52.012;5.048;2022-09-23T12:45:53;5.47;;;4.78;;
16660;SDS011;8444;52.012;5.048;2022-09-23T12:55:59;9.32;;;6.18;;
16660;SDS011;8444;52.012;5.048;2022-09-23T13:01:07;6.40;;;5.75;;
16660;SDS011;8444;52.012;5.048;2022-09-23T13:03:32;10.05;;;6.55;;
16660;SDS011;8444;52.012;5.048;2022-09-23T13:06:16;8.43;;;6.35;;
16660;SDS011;8444;52.012;5.048;2022-09-23T13:09:00;6.25;;;5.57;;
16660;SDS011;8444;52.012;5.048;2022-09-23T13:11:29;9.88;;;6.40;;
16660;SDS011;8444;52.012;5.048;2022-09-23T13:13:56;6.07;;;5.47;;
16660;SDS011;8444;52.012;5.048;2022-09-23T13:16:25;8.63;;;6.32;;
16660;SDS011;8444;52.012;5.048;2022-09-23T13:26:51;7.38;;;6.07;;
16660;SDS011;8444;52.012;5.048;2022-09-23T13:30:18;7.38;;;6.53;;
16660;SDS011;8444;52.012;5.048;2022-09-23T13:32:12;7.60;;;6.00;;
16660;SDS011;8444;52.012;5.048;2022-09-23T13:34:39;9.73;;;7.35;;
16660;SDS011;8444;52.012;5.048;2022-09-23T13:37:18;8.15;;;6.53;;
16660;SDS011;8444;52.012;5.048;2022-09-23T13:39:44;9.60;;;7.00;;
16660;SDS011;8444;52.012;5.048;2022-09-23T13:42:11;9.03;;;6.27;;
16660;SDS011;8444;52.012;5.048;2022-09-23T13:44:40;12.00;;;6.75;;
16660;SDS011;8444;52.012;5.048;2022-09-23T13:47:09;9.90;;;6.40;;
16660;SDS011;8444;52.012;5.048;2022-09-23T13:49:36;7.18;;;5.70;;
16660;SDS011;8444;52.012;5.048;2022-09-23T13:52:02;11.35;;;6.20;;
16660;SDS011;8444;52.012;5.048;2022-09-23T13:54:35;7.40;;;6.15;;
16660;SDS011;8444;52.012;5.048;2022-09-23T14:00:18;7.30;;;5.75;;
16660;SDS011;8444;52.012;5.048;2022-09-23T14:02:44;8.07;;;6.53;;
16660;SDS011;8444;52.012;5.048;2022-09-23T14:05:11;8.80;;;6.15;;
16660;SDS011;8444;52.012;5.048;2022-09-23T14:07:37;7.95;;;5.53;;
16660;SDS011;8444;52.012;5.048;2022-09-23T14:10:03;7.75;;;4.53;;
16660;SDS011;8444;52.012;5.048;2022-09-23T14:12:29;7.35;;;5.72;;
16660;SDS011;8444;52.012;5.048;2022-09-23T14:14:55;8.93;;;5.63;;
16660;SDS011;8444;52.012;5.048;2022-09-23T14:17:21;9.43;;;5.85;;
16660;SDS011;8444;52.012;5.048;2022-09-23T14:19:49;10.32;;;5.80;;
16660;SDS011;8444;52.012;5.048;2022-09-23T14:24:47;6.40;;;5.10;;
16660;SDS011;8444;52.012;5.048;2022-09-23T14:27:13;6.80;;;4.47;;
16660;SDS011;8444;52.012;5.048;2022-09-23T14:29:43;5.30;;;3.95;;
16660;SDS011;8444;52.012;5.048;2022-09-23T14:34:38;5.65;;;4.10;;
16660;SDS011;8444;52.012;5.048;2022-09-23T14:37:09;10.90;;;6.32;;
16660;SDS011;8444;52.012;5.048;2022-09-23T14:39:53;8.05;;;5.22;;
16660;SDS011;8444;52.012;5.048;2022-09-23T14:42:19;11.20;;;6.28;;
16660;SDS011;8444;52.012;5.048;2022-09-23T14:44:44;7.18;;;5.40;;
16660;SDS011;8444;52.012;5.048;2022-09-23T14:47:12;5.45;;;4.53;;
16660;SDS011;8444;52.012;5.048;2022-09-23T14:49:38;5.28;;;4.28;;
16660;SDS011;8444;52.012;5.048;2022-09-23T14:52:23;4.13;;;3.72;;
16660;SDS011;8444;52.012;5.048;2022-09-23T14:54:49;5.90;;;4.97;;
16660;SDS011;8444;52.012;5.048;2022-09-23T14:59:48;8.60;;;4.28;;
16660;SDS011;8444;52.012;5.048;2022-09-23T15:07:34;9.73;;;4.63;;
16660;SDS011;8444;52.012;5.048;2022-09-23T15:10:00;5.25;;;4.20;;
16660;SDS011;8444;52.012;5.048;2022-09-23T15:12:25;7.40;;;5.30;;
16660;SDS011;8444;52.012;5.048;2022-09-23T15:14:51;6.47;;;4.55;;
16660;SDS011;8444;52.012;5.048;2022-09-23T15:19:52;8.18;;;5.13;;
16660;SDS011;8444;52.012;5.048;2022-09-23T15:22:20;8.82;;;5.72;;
16660;SDS011;8444;52.012;5.048;2022-09-23T15:24:46;7.57;;;5.45;;
16660;SDS011;8444;52.012;5.048;2022-09-23T15:27:26;6.88;;;5.60;;
16660;SDS011;8444;52.012;5.048;2022-09-23T15:29:51;7.03;;;6.32;;
16660;SDS011;8444;52.012;5.048;2022-09-23T15:32:17;8.98;;;5.78;;
16660;SDS011;8444;52.012;5.048;2022-09-23T15:34:43;9.40;;;6.20;;
16660;SDS011;8444;52.012;5.048;2022-09-23T15:37:09;7.78;;;5.65;;
16660;SDS011;8444;52.012;5.048;2022-09-23T15:39:36;8.45;;;6.63;;
16660;SDS011;8444;52.012;5.048;2022-09-23T15:42:01;9.20;;;6.15;;
16660;SDS011;8444;52.012;5.048;2022-09-23T15:44:26;6.82;;;6.13;;
16660;SDS011;8444;52.012;5.048;2022-09-23T15:46:53;7.25;;;6.40;;
16660;SDS011;8444;52.012;5.048;2022-09-23T15:49:53;14.45;;;6.40;;
16660;SDS011;8444;52.012;5.048;2022-09-23T15:52:12;9.85;;;6.93;;
16660;SDS011;8444;52.012;5.048;2022-09-23T15:54:39;10.65;;;7.13;;
16660;SDS011;8444;52.012;5.048;2022-09-23T15:57:04;7.75;;;6.88;;
16660;SDS011;8444;52.012;5.048;2022-09-23T15:59:29;10.10;;;7.65;;
16660;SDS011;8444;52.012;5.048;2022-09-23T16:01:55;10.52;;;8.73;;
16660;SDS011;8444;52.012;5.048;2022-09-23T16:04:22;9.23;;;7.50;;
16660;SDS011;8444;52.012;5.048;2022-09-23T16:06:47;12.63;;;7.68;;
16660;SDS011;8444;52.012;5.048;2022-09-23T16:09:15;11.05;;;8.55;;
16660;SDS011;8444;52.012;5.048;2022-09-23T16:11:42;9.38;;;7.70;;
16660;SDS011;8444;52.012;5.048;2022-09-23T16:14:15;12.50;;;8.63;;
16660;SDS011;8444;52.012;5.048;2022-09-23T16:16:41;13.55;;;8.23;;
16660;SDS011;8444;52.012;5.048;2022-09-23T16:19:07;14.40;;;9.43;;
16660;SDS011;8444;52.012;5.048;2022-09-23T16:21:32;11.85;;;8.90;;
16660;SDS011;8444;52.012;5.048;2022-09-23T16:23:58;13.63;;;9.82;;
16660;SDS011;8444;52.012;5.048;2022-09-23T16:26:27;11.80;;;8.80;;
16660;SDS011;8444;52.012;5.048;2022-09-23T16:28:54;8.73;;;7.82;;
16660;SDS011;8444;52.012;5.048;2022-09-23T16:31:20;12.98;;;8.38;;
16660;SDS011;8444;52.012;5.048;2022-09-23T16:33:46;11.90;;;8.77;;
16660;SDS011;8444;52.012;5.048;2022-09-23T16:36:25;12.27;;;8.50;;
16660;SDS011;8444;52.012;5.048;2022-09-23T16:38:53;12.60;;;8.48;;
16660;SDS011;8444;52.012;5.048;2022-09-23T16:41:19;10.63;;;7.78;;
16660;SDS011;8444;52.012;5.048;2022-09-23T16:43:45;13.93;;;8.50;;
16660;SDS011;8444;52.012;5.048;2022-09-23T16:46:11;11.40;;;8.25;;
16660;SDS011;8444;52.012;5.048;2022-09-23T16:48:37;18.08;;;10.30;;
16660;SDS011;8444;52.012;5.048;2022-09-23T16:51:05;9.90;;;8.00;;
16660;SDS011;8444;52.012;5.048;2022-09-23T16:53:30;11.10;;;8.77;;
16660;SDS011;8444;52.012;5.048;2022-09-23T16:55:55;11.30;;;8.73;;
16660;SDS011;8444;52.012;5.048;2022-09-23T16:58:23;9.68;;;8.60;;
16660;SDS011;8444;52.012;5.048;2022-09-23T17:00:48;11.73;;;9.07;;
16660;SDS011;8444;52.012;5.048;2022-09-23T17:03:32;12.20;;;8.73;;
16660;SDS011;8444;52.012;5.048;2022-09-23T17:06:04;9.68;;;7.97;;
16660;SDS011;8444;52.012;5.048;2022-09-23T17:08:31;12.70;;;10.50;;
16660;SDS011;8444;52.012;5.048;2022-09-23T17:10:56;12.07;;;9.48;;
16660;SDS011;8444;52.012;5.048;2022-09-23T17:13:22;13.65;;;10.05;;
16660;SDS011;8444;52.012;5.048;2022-09-23T17:15:49;11.57;;;9.45;;
16660;SDS011;8444;52.012;5.048;2022-09-23T17:18:14;12.80;;;9.10;;
16660;SDS011;8444;52.012;5.048;2022-09-23T17:20:40;11.57;;;9.60;;
16660;SDS011;8444;52.012;5.048;2022-09-23T17:23:05;13.35;;;9.75;;
16660;SDS011;8444;52.012;5.048;2022-09-23T17:25:31;12.35;;;9.93;;
16660;SDS011;8444;52.012;5.048;2022-09-23T17:27:56;13.93;;;10.15;;
16660;SDS011;8444;52.012;5.048;2022-09-23T17:30:22;16.08;;;10.95;;
16660;SDS011;8444;52.012;5.048;2022-09-23T17:32:47;12.52;;;10.20;;
16660;SDS011;8444;52.012;5.048;2022-09-23T17:35:12;12.25;;;9.82;;
16660;SDS011;8444;52.012;5.048;2022-09-23T17:37:38;14.40;;;10.73;;
16660;SDS011;8444;52.012;5.048;2022-09-23T17:40:03;12.80;;;10.15;;
16660;SDS011;8444;52.012;5.048;2022-09-23T17:42:28;14.45;;;10.63;;
16660;SDS011;8444;52.012;5.048;2022-09-23T17:44:54;14.63;;;11.23;;